Check out our new PWSWeather beta!
PWSweather.com
Personal Weather Stations
Station Observations
SHAHALMS1
Eftra, Falkenberg, HA

EftraFalkenberg, HA

Lat: 56.85, Lon: 12.65

Elevation: 140

Station Type:

http://hem.passagen.se/risarp101

High Low Average
Temperature 68.0°F20.0°C 58.5°F14.7°C 62.8°F17.1°C
Dew Point 64.5°F18.1°C 50.3°F10.2°C 57.4°F14.1°C
Winds 7.9 mph 12.7 kmh Calm Calm 3.0 mph S4.8 kmh S
Wind Gusts 16.5 mph26.6 kmh -- 7.0 mph11.3 kmh
Humidity 97% 69% 83%
Pressure 29.92 in1013.2 mb 29.74 in1007.1 mb -
Precipitation 0.09 in2.3 mm - -
Hour Temp Dew Point Humidity Winds Wind Gusts Pressure Precip Precip Rate Daily Precip Total
12:00 AM 58.6°F14.8°C 56.6°F13.7°C 93% 4.8 mph E7.7 kmh E 7.9 mph12.7 kmh 29.77 in1008.1 mb 0.00 in0.0 mm 0.00 in0.0 mm 0.00 in0.0 mm
12:10 AM 58.6°F14.8°C 56.9°F13.8°C 94% 1.4 mph E2.3 kmh E 7.9 mph12.7 kmh 29.77 in1008.1 mb 0.00 in0.0 mm 0.00 in0.0 mm 0.00 in0.0 mm
12:20 AM 58.6°F14.8°C 56.9°F13.8°C 94% 4.1 mph ESE6.6 kmh ESE 8.6 mph13.8 kmh 29.80 in1009.1 mb 0.00 in0.0 mm 0.00 in0.0 mm 0.00 in0.0 mm
12:30 AM 58.6°F14.8°C 56.9°F13.8°C 94% 5.8 mph ESE9.3 kmh ESE 9.3 mph15.0 kmh 29.77 in1008.1 mb 0.00 in0.0 mm 0.00 in0.0 mm 0.00 in0.0 mm
12:40 AM 58.5°F14.7°C 56.7°F13.7°C 94% 4.5 mph ESE7.2 kmh ESE 10.0 mph16.1 kmh 29.77 in1008.1 mb 0.00 in0.0 mm 0.00 in0.0 mm 0.00 in0.0 mm
12:50 AM 58.5°F14.7°C 56.7°F13.7°C 94% 4.7 mph SE7.6 kmh SE 10.0 mph16.1 kmh 29.77 in1008.1 mb 0.00 in0.0 mm 0.00 in0.0 mm 0.00 in0.0 mm
01:00 AM 58.6°F14.8°C 56.9°F13.8°C 94% 1.3 mph ESE2.1 kmh ESE 4.7 mph7.6 kmh 29.77 in1008.1 mb 0.00 in0.0 mm 0.00 in0.0 mm 0.00 in0.0 mm
01:10 AM 58.6°F14.8°C 56.9°F13.8°C 94% 4.6 mph E7.4 kmh E 8.9 mph14.3 kmh 29.77 in1008.1 mb 0.00 in0.0 mm 0.00 in0.0 mm 0.00 in0.0 mm
01:20 AM 58.8°F14.9°C 57.1°F13.9°C 94% 4.3 mph E6.9 kmh E 6.8 mph10.9 kmh 29.77 in1008.1 mb 0.00 in0.0 mm 0.00 in0.0 mm 0.00 in0.0 mm
01:30 AM 58.8°F14.9°C 57.1°F13.9°C 94% 1.5 mph E2.4 kmh E 6.8 mph10.9 kmh 29.77 in1008.1 mb 0.00 in0.0 mm 0.00 in0.0 mm 0.00 in0.0 mm
01:40 AM 58.8°F14.9°C 57.1°F13.9°C 94% 3.8 mph E6.1 kmh E 4.7 mph7.6 kmh 29.77 in1008.1 mb 0.00 in0.0 mm 0.00 in0.0 mm 0.00 in0.0 mm
01:50 AM 59.0°F15.0°C 57.3°F14.1°C 94% 4.6 mph ESE7.4 kmh ESE 9.7 mph15.6 kmh 29.77 in1008.1 mb 0.00 in0.0 mm 0.00 in0.0 mm 0.00 in0.0 mm
02:00 AM 59.0°F15.0°C 57.3°F14.1°C 94% 7.9 mph SE12.7 kmh SE 9.7 mph15.6 kmh 29.77 in1008.1 mb 0.00 in0.0 mm 0.00 in0.0 mm 0.00 in0.0 mm
02:10 AM 59.0°F15.0°C 57.3°F14.1°C 94% 7.9 mph SE12.7 kmh SE 9.7 mph15.6 kmh 29.77 in1008.1 mb 0.00 in0.0 mm 0.00 in0.0 mm 0.00 in0.0 mm
02:20 AM 59.0°F15.0°C 57.3°F14.1°C 94% 7.9 mph SE12.7 kmh SE 9.7 mph15.6 kmh 29.77 in1008.1 mb 0.00 in0.0 mm 0.00 in0.0 mm 0.00 in0.0 mm
02:30 AM 59.0°F15.0°C 57.3°F14.1°C 94% 5.2 mph E8.4 kmh E 6.4 mph10.3 kmh 29.77 in1008.1 mb 0.00 in0.0 mm 0.00 in0.0 mm 0.00 in0.0 mm
02:40 AM 59.2°F15.1°C 57.5°F14.2°C 94% 0.4 mph E0.6 kmh E 6.4 mph10.3 kmh 29.77 in1008.1 mb 0.00 in0.0 mm 0.00 in0.0 mm 0.00 in0.0 mm
02:50 AM 59.2°F15.1°C 57.7°F14.3°C 95% Calm Calm -- 29.77 in1008.1 mb 0.00 in0.0 mm 0.00 in0.0 mm 0.00 in0.0 mm
03:00 AM 59.2°F15.1°C 57.7°F14.3°C 95% 2.1 mph SE3.4 kmh SE 4.3 mph6.9 kmh 29.77 in1008.1 mb 0.00 in0.0 mm 0.00 in0.0 mm 0.00 in0.0 mm
03:10 AM 59.4°F15.2°C 57.9°F14.4°C 95% 2.7 mph SE4.3 kmh SE 4.3 mph6.9 kmh 29.77 in1008.1 mb 0.00 in0.0 mm 0.00 in0.0 mm 0.00 in0.0 mm
03:20 AM 59.4°F15.2°C 57.9°F14.4°C 95% 2.6 mph SE4.2 kmh SE 9.7 mph15.6 kmh 29.77 in1008.1 mb 0.00 in0.0 mm 0.00 in0.0 mm 0.00 in0.0 mm
03:30 AM 59.5°F15.3°C 58.1°F14.5°C 95% 6.1 mph SE9.8 kmh SE 9.7 mph15.6 kmh 29.77 in1008.1 mb 0.00 in0.0 mm 0.00 in0.0 mm 0.00 in0.0 mm
03:40 AM 59.4°F15.2°C 57.9°F14.4°C 95% 4.4 mph SE7.1 kmh SE 5.4 mph8.7 kmh 29.77 in1008.1 mb 0.00 in0.0 mm 0.00 in0.0 mm 0.00 in0.0 mm
03:50 AM 59.4°F15.2°C 57.9°F14.4°C 95% 5.9 mph ESE9.5 kmh ESE 11.5 mph18.5 kmh 29.74 in1007.1 mb 0.00 in0.0 mm 0.00 in0.0 mm 0.00 in0.0 mm
04:00 AM 59.4°F15.2°C 57.9°F14.4°C 95% 4.0 mph E6.4 kmh E 9.3 mph15.0 kmh 29.77 in1008.1 mb 0.00 in0.0 mm 0.00 in0.0 mm 0.00 in0.0 mm
04:10 AM 59.4°F15.2°C 57.9°F14.4°C 95% 3.8 mph E6.1 kmh E 9.3 mph15.0 kmh 29.77 in1008.1 mb 0.00 in0.0 mm 0.00 in0.0 mm 0.00 in0.0 mm
04:20 AM 59.4°F15.2°C 57.9°F14.4°C 95% 1.7 mph ESE2.7 kmh ESE 9.7 mph15.6 kmh 29.74 in1007.1 mb 0.00 in0.0 mm 0.00 in0.0 mm 0.00 in0.0 mm
04:30 AM 59.5°F15.3°C 58.1°F14.5°C 95% 1.9 mph ESE3.1 kmh ESE 11.5 mph18.5 kmh 29.74 in1007.1 mb 0.00 in0.0 mm 0.00 in0.0 mm 0.00 in0.0 mm
04:40 AM 59.5°F15.3°C 58.1°F14.5°C 95% Calm Calm -- 29.74 in1007.1 mb 0.00 in0.0 mm 0.00 in0.0 mm 0.00 in0.0 mm
04:50 AM 59.5°F15.3°C 58.1°F14.5°C 95% 0.2 mph E0.3 kmh E 3.9 mph6.3 kmh 29.77 in1008.1 mb 0.00 in0.0 mm 0.00 in0.0 mm 0.00 in0.0 mm
05:00 AM 59.5°F15.3°C 58.1°F14.5°C 95% 0.5 mph E0.8 kmh E 4.3 mph6.9 kmh 29.77 in1008.1 mb 0.05 in1.3 mm 0.06 in1.5 mm 0.05 in1.3 mm
05:10 AM 59.7°F15.4°C 58.3°F14.6°C 95% 3.1 mph ESE5.0 kmh ESE 11.8 mph19.0 kmh 29.77 in1008.1 mb 0.05 in1.3 mm 0.00 in0.0 mm 0.05 in1.3 mm
05:20 AM 59.7°F15.4°C 58.3°F14.6°C 95% 3.8 mph E6.1 kmh E 9.7 mph15.6 kmh 29.77 in1008.1 mb 0.05 in1.3 mm 0.00 in0.0 mm 0.05 in1.3 mm
05:30 AM 59.7°F15.4°C 58.3°F14.6°C 95% 6.7 mph ESE10.8 kmh ESE 12.5 mph20.1 kmh 29.80 in1009.1 mb 0.05 in1.3 mm 0.00 in0.0 mm 0.05 in1.3 mm
05:40 AM 59.9°F15.5°C 58.8°F14.9°C 96% 7.9 mph ESE12.7 kmh ESE 12.5 mph20.1 kmh 29.80 in1009.1 mb 0.05 in1.3 mm 0.00 in0.0 mm 0.05 in1.3 mm
05:50 AM 59.9°F15.5°C 58.8°F14.9°C 96% 5.9 mph ESE9.5 kmh ESE 10.0 mph16.1 kmh 29.77 in1008.1 mb 0.09 in2.3 mm 0.24 in6.1 mm 0.09 in2.3 mm
06:00 AM 59.9°F15.5°C 58.8°F14.9°C 96% 5.2 mph SE8.4 kmh SE 9.7 mph15.6 kmh 29.77 in1008.1 mb 0.05 in1.3 mm 0.00 in0.0 mm 0.09 in2.3 mm
06:10 AM 59.9°F15.5°C 58.8°F14.9°C 96% 4.2 mph ESE6.8 kmh ESE 7.9 mph12.7 kmh 29.77 in1008.1 mb 0.05 in1.3 mm 0.00 in0.0 mm 0.09 in2.3 mm
06:20 AM 60.3°F15.7°C 59.1°F15.1°C 96% 0.8 mph SE1.3 kmh SE 5.7 mph9.2 kmh 29.80 in1009.1 mb 0.05 in1.3 mm 0.00 in0.0 mm 0.09 in2.3 mm
06:30 AM 61.2°F16.2°C 60.0°F15.6°C 96% 1.2 mph ESE1.9 kmh ESE 5.7 mph9.2 kmh 29.80 in1009.1 mb 0.05 in1.3 mm 0.00 in0.0 mm 0.09 in2.3 mm
06:40 AM 61.7°F16.5°C 60.5°F15.8°C 96% 0.4 mph E0.6 kmh E 2.5 mph4.0 kmh 29.80 in1009.1 mb 0.05 in1.3 mm 0.00 in0.0 mm 0.09 in2.3 mm
06:50 AM 62.6°F17.0°C 61.7°F16.5°C 97% 0.1 mph S0.2 kmh S 4.3 mph6.9 kmh 29.80 in1009.1 mb 0.00 in0.0 mm 0.00 in0.0 mm 0.09 in2.3 mm
07:00 AM 63.1°F17.3°C 62.3°F16.8°C 97% 0.1 mph NW0.2 kmh NW 1.4 mph2.3 kmh 29.80 in1009.1 mb 0.00 in0.0 mm 0.00 in0.0 mm 0.09 in2.3 mm
07:10 AM 64.4°F18.0°C 63.2°F17.3°C 96% 0.8 mph E1.3 kmh E 3.6 mph5.8 kmh 29.80 in1009.1 mb 0.00 in0.0 mm 0.00 in0.0 mm 0.09 in2.3 mm
07:20 AM 64.8°F18.2°C 63.3°F17.4°C 95% Calm Calm -- 29.80 in1009.1 mb 0.00 in0.0 mm 0.00 in0.0 mm 0.09 in2.3 mm
07:30 AM 64.9°F18.3°C 63.5°F17.5°C 95% Calm Calm -- 29.80 in1009.1 mb 0.00 in0.0 mm 0.00 in0.0 mm 0.09 in2.3 mm
07:40 AM 64.9°F18.3°C 63.5°F17.5°C 95% 0.2 mph WSW0.3 kmh WSW 1.4 mph2.3 kmh 29.80 in1009.1 mb 0.00 in0.0 mm 0.00 in0.0 mm 0.09 in2.3 mm
07:50 AM 65.1°F18.4°C 63.7°F17.6°C 95% Calm Calm -- 29.80 in1009.1 mb 0.00 in0.0 mm 0.00 in0.0 mm 0.09 in2.3 mm
08:00 AM 66.0°F18.9°C 64.5°F18.1°C 95% 0.2 mph S0.3 kmh S 2.1 mph3.4 kmh 29.80 in1009.1 mb 0.00 in0.0 mm 0.00 in0.0 mm 0.09 in2.3 mm
08:10 AM 65.8°F18.8°C 64.1°F17.8°C 94% 3.4 mph S5.5 kmh S 7.9 mph12.7 kmh 29.80 in1009.1 mb 0.00 in0.0 mm 0.00 in0.0 mm 0.09 in2.3 mm
08:20 AM 65.8°F18.8°C 64.1°F17.8°C 94% 1.9 mph W3.1 kmh W 5.0 mph8.0 kmh 29.83 in1010.2 mb 0.00 in0.0 mm 0.00 in0.0 mm 0.09 in2.3 mm
08:30 AM 66.0°F18.9°C 63.9°F17.7°C 93% 0.8 mph W1.3 kmh W 5.0 mph8.0 kmh 29.83 in1010.2 mb 0.00 in0.0 mm 0.00 in0.0 mm 0.09 in2.3 mm
08:40 AM 66.2°F19.0°C 63.8°F17.7°C 92% Calm Calm -- 29.83 in1010.2 mb 0.00 in0.0 mm 0.00 in0.0 mm 0.09 in2.3 mm
08:50 AM 66.2°F19.0°C 63.8°F17.7°C 92% 2.3 mph SW3.7 kmh SW 6.1 mph9.8 kmh 29.83 in1010.2 mb 0.00 in0.0 mm 0.00 in0.0 mm 0.09 in2.3 mm
09:00 AM 66.0°F18.9°C 63.6°F17.6°C 92% 2.1 mph NNW3.4 kmh NNW 4.3 mph6.9 kmh 29.83 in1010.2 mb 0.00 in0.0 mm 0.00 in0.0 mm 0.09 in2.3 mm
09:10 AM 66.0°F18.9°C 63.6°F17.6°C 92% 1.5 mph W2.4 kmh W 4.3 mph6.9 kmh 29.83 in1010.2 mb 0.00 in0.0 mm 0.00 in0.0 mm 0.09 in2.3 mm
09:20 AM 66.2°F19.0°C 63.5°F17.5°C 91% 1.8 mph W2.9 kmh W 7.5 mph12.1 kmh 29.86 in1011.2 mb 0.00 in0.0 mm 0.00 in0.0 mm 0.09 in2.3 mm
09:30 AM 66.4°F19.1°C 63.7°F17.6°C 91% 1.9 mph W3.1 kmh W 9.7 mph15.6 kmh 29.86 in1011.2 mb 0.00 in0.0 mm 0.00 in0.0 mm 0.09 in2.3 mm
09:40 AM 66.4°F19.1°C 63.4°F17.4°C 90% 3.0 mph WNW4.8 kmh WNW 7.9 mph12.7 kmh 29.86 in1011.2 mb 0.00 in0.0 mm 0.00 in0.0 mm 0.09 in2.3 mm
09:50 AM 66.6°F19.2°C 63.2°F17.3°C 89% 3.0 mph W4.8 kmh W 6.8 mph10.9 kmh 29.83 in1010.2 mb 0.00 in0.0 mm 0.00 in0.0 mm 0.09 in2.3 mm
10:00 AM 66.6°F19.2°C 62.6°F17.0°C 87% 3.5 mph W5.6 kmh W 6.8 mph10.9 kmh 29.83 in1010.2 mb 0.00 in0.0 mm 0.00 in0.0 mm 0.09 in2.3 mm
10:10 AM 66.6°F19.2°C 62.2°F16.8°C 86% 4.6 mph WNW7.4 kmh WNW 13.6 mph21.9 kmh 29.83 in1010.2 mb 0.00 in0.0 mm 0.00 in0.0 mm 0.09 in2.3 mm
10:20 AM 66.7°F19.3°C 62.1°F16.7°C 85% 4.3 mph WNW6.9 kmh WNW 10.4 mph16.7 kmh 29.83 in1010.2 mb 0.00 in0.0 mm 0.00 in0.0 mm 0.09 in2.3 mm
10:30 AM 67.1°F19.5°C 62.1°F16.7°C 84% 5.1 mph NW8.2 kmh NW 14.0 mph22.5 kmh 29.83 in1010.2 mb 0.00 in0.0 mm 0.00 in0.0 mm 0.09 in2.3 mm
10:40 AM 67.1°F19.5°C 61.8°F16.6°C 83% 5.0 mph NW8.0 kmh NW 13.6 mph21.9 kmh 29.83 in1010.2 mb 0.00 in0.0 mm 0.00 in0.0 mm 0.09 in2.3 mm
10:50 AM 67.1°F19.5°C 61.4°F16.3°C 82% 6.0 mph WNW9.7 kmh WNW 15.7 mph25.3 kmh 29.83 in1010.2 mb 0.00 in0.0 mm 0.00 in0.0 mm 0.09 in2.3 mm
11:00 AM 67.1°F19.5°C 60.7°F15.9°C 80% 5.1 mph WNW8.2 kmh WNW 12.9 mph20.8 kmh 29.86 in1011.2 mb 0.00 in0.0 mm 0.00 in0.0 mm 0.09 in2.3 mm
11:10 AM 67.1°F19.5°C 61.1°F16.2°C 81% 4.6 mph WNW7.4 kmh WNW 10.0 mph16.1 kmh 29.86 in1011.2 mb 0.00 in0.0 mm 0.00 in0.0 mm 0.09 in2.3 mm
11:20 AM 67.3°F19.6°C 60.5°F15.8°C 79% 6.0 mph WNW9.7 kmh WNW 16.5 mph26.6 kmh 29.86 in1011.2 mb 0.00 in0.0 mm 0.00 in0.0 mm 0.09 in2.3 mm
11:30 AM 67.5°F19.7°C 60.0°F15.6°C 77% 5.5 mph WNW8.9 kmh WNW 15.7 mph25.3 kmh 29.86 in1011.2 mb 0.00 in0.0 mm 0.00 in0.0 mm 0.09 in2.3 mm
11:40 AM 68.0°F20.0°C 60.9°F16.1°C 78% 4.3 mph WNW6.9 kmh WNW 10.4 mph16.7 kmh 29.86 in1011.2 mb 0.00 in0.0 mm 0.00 in0.0 mm 0.09 in2.3 mm
11:50 AM 67.8°F19.9°C 60.0°F15.6°C 76% 5.2 mph NW8.4 kmh NW 15.4 mph24.8 kmh 29.89 in1012.2 mb 0.00 in0.0 mm 0.00 in0.0 mm 0.09 in2.3 mm
12:00 PM 67.6°F19.8°C 59.8°F15.4°C 76% 4.4 mph W7.1 kmh W 14.3 mph23.0 kmh 29.89 in1012.2 mb 0.00 in0.0 mm 0.00 in0.0 mm 0.09 in2.3 mm
12:10 PM 67.8°F19.9°C 60.0°F15.6°C 76% 4.7 mph W7.6 kmh W 11.1 mph17.9 kmh 29.89 in1012.2 mb 0.00 in0.0 mm 0.00 in0.0 mm 0.09 in2.3 mm
12:20 PM 67.3°F19.6°C 58.7°F14.8°C 74% 5.7 mph WNW9.2 kmh WNW 16.5 mph26.6 kmh 29.89 in1012.2 mb 0.00 in0.0 mm 0.00 in0.0 mm 0.09 in2.3 mm
12:30 PM 67.5°F19.7°C 58.9°F14.9°C 74% 5.1 mph W8.2 kmh W 13.6 mph21.9 kmh 29.89 in1012.2 mb 0.00 in0.0 mm 0.00 in0.0 mm 0.09 in2.3 mm
12:40 PM 67.3°F19.6°C 58.3°F14.6°C 73% 5.3 mph WNW8.5 kmh WNW 12.2 mph19.6 kmh 29.89 in1012.2 mb 0.00 in0.0 mm 0.00 in0.0 mm 0.09 in2.3 mm
12:50 PM 67.5°F19.7°C 58.1°F14.5°C 72% 5.3 mph W8.5 kmh W 13.6 mph21.9 kmh 29.89 in1012.2 mb 0.00 in0.0 mm 0.00 in0.0 mm 0.09 in2.3 mm
01:00 PM 67.5°F19.7°C 58.1°F14.5°C 72% 5.0 mph WNW8.0 kmh WNW 15.4 mph24.8 kmh 29.89 in1012.2 mb 0.00 in0.0 mm 0.00 in0.0 mm 0.09 in2.3 mm
01:10 PM 67.6°F19.8°C 58.3°F14.6°C 72% 4.2 mph WNW6.8 kmh WNW 14.0 mph22.5 kmh 29.89 in1012.2 mb 0.00 in0.0 mm 0.00 in0.0 mm 0.09 in2.3 mm
01:20 PM 67.3°F19.6°C 57.9°F14.4°C 72% 6.1 mph WNW9.8 kmh WNW 13.6 mph21.9 kmh 29.89 in1012.2 mb 0.00 in0.0 mm 0.00 in0.0 mm 0.09 in2.3 mm
01:30 PM 66.9°F19.4°C 57.6°F14.2°C 72% 4.1 mph WNW6.6 kmh WNW 12.2 mph19.6 kmh 29.92 in1013.2 mb 0.00 in0.0 mm 0.00 in0.0 mm 0.09 in2.3 mm
01:40 PM 66.9°F19.4°C 57.6°F14.2°C 72% 4.6 mph WNW7.4 kmh WNW 11.5 mph18.5 kmh 29.92 in1013.2 mb 0.00 in0.0 mm 0.00 in0.0 mm 0.09 in2.3 mm
01:50 PM 67.1°F19.5°C 57.4°F14.1°C 71% 4.2 mph NW6.8 kmh NW 8.9 mph14.3 kmh 29.89 in1012.2 mb 0.00 in0.0 mm 0.00 in0.0 mm 0.09 in2.3 mm
02:00 PM 67.1°F19.5°C 57.0°F13.9°C 70% 5.1 mph NW8.2 kmh NW 11.8 mph19.0 kmh 29.89 in1012.2 mb 0.00 in0.0 mm 0.00 in0.0 mm 0.09 in2.3 mm
02:10 PM 67.5°F19.7°C 57.3°F14.1°C 70% 3.7 mph WNW6.0 kmh WNW 10.4 mph16.7 kmh 29.89 in1012.2 mb 0.00 in0.0 mm 0.00 in0.0 mm 0.09 in2.3 mm
02:20 PM 67.6°F19.8°C 57.5°F14.2°C 70% 3.9 mph WNW6.3 kmh WNW 10.4 mph16.7 kmh 29.89 in1012.2 mb 0.00 in0.0 mm 0.00 in0.0 mm 0.09 in2.3 mm
02:30 PM 67.5°F19.7°C 56.9°F13.8°C 69% 3.7 mph W6.0 kmh W 9.3 mph15.0 kmh 29.89 in1012.2 mb 0.00 in0.0 mm 0.00 in0.0 mm 0.09 in2.3 mm
02:40 PM 66.9°F19.4°C 56.4°F13.6°C 69% 5.2 mph NW8.4 kmh NW 15.7 mph25.3 kmh 29.89 in1012.2 mb 0.00 in0.0 mm 0.00 in0.0 mm 0.09 in2.3 mm
02:50 PM 66.6°F19.2°C 56.5°F13.6°C 70% 2.8 mph NW4.5 kmh NW 12.9 mph20.8 kmh 29.86 in1011.2 mb 0.00 in0.0 mm 0.00 in0.0 mm 0.09 in2.3 mm
03:00 PM 66.2°F19.0°C 56.5°F13.6°C 71% 4.4 mph W7.1 kmh W 8.6 mph13.8 kmh 29.89 in1012.2 mb 0.00 in0.0 mm 0.00 in0.0 mm 0.09 in2.3 mm
03:10 PM 65.8°F18.8°C 56.2°F13.4°C 71% 3.5 mph NW5.6 kmh NW 8.9 mph14.3 kmh 29.89 in1012.2 mb 0.00 in0.0 mm 0.00 in0.0 mm 0.09 in2.3 mm
03:20 PM 65.7°F18.7°C 56.4°F13.6°C 72% 2.1 mph NW3.4 kmh NW 6.8 mph10.9 kmh 29.89 in1012.2 mb 0.00 in0.0 mm 0.00 in0.0 mm 0.09 in2.3 mm
03:30 PM 65.5°F18.6°C 56.2°F13.4°C 72% 1.9 mph WSW3.1 kmh WSW 5.7 mph9.2 kmh 29.86 in1011.2 mb 0.00 in0.0 mm 0.00 in0.0 mm 0.09 in2.3 mm
03:40 PM 64.9°F18.3°C 55.7°F13.2°C 72% 3.4 mph NW5.5 kmh NW 8.6 mph13.8 kmh 29.86 in1011.2 mb 0.00 in0.0 mm 0.00 in0.0 mm 0.09 in2.3 mm
03:50 PM 64.8°F18.2°C 55.9°F13.3°C 73% 2.7 mph W4.3 kmh W 6.4 mph10.3 kmh 29.89 in1012.2 mb 0.00 in0.0 mm 0.00 in0.0 mm 0.09 in2.3 mm
04:00 PM 64.6°F18.1°C 56.1°F13.4°C 74% 3.7 mph NW6.0 kmh NW 6.4 mph10.3 kmh 29.89 in1012.2 mb 0.00 in0.0 mm 0.00 in0.0 mm 0.09 in2.3 mm
04:10 PM 64.6°F18.1°C 56.5°F13.6°C 75% 3.4 mph W5.5 kmh W 9.3 mph15.0 kmh 29.89 in1012.2 mb 0.00 in0.0 mm 0.00 in0.0 mm 0.09 in2.3 mm
04:20 PM 64.4°F18.0°C 55.9°F13.3°C 74% 3.0 mph WNW4.8 kmh WNW 5.7 mph9.2 kmh 29.89 in1012.2 mb 0.00 in0.0 mm 0.00 in0.0 mm 0.09 in2.3 mm
04:30 PM 64.4°F18.0°C 55.9°F13.3°C 74% 1.8 mph W2.9 kmh W 5.7 mph9.2 kmh 29.89 in1012.2 mb 0.00 in0.0 mm 0.00 in0.0 mm 0.09 in2.3 mm
04:40 PM 64.4°F18.0°C 55.6°F13.1°C 73% 0.2 mph W0.3 kmh W 1.4 mph2.3 kmh 29.89 in1012.2 mb 0.00 in0.0 mm 0.00 in0.0 mm 0.09 in2.3 mm
04:50 PM 64.4°F18.0°C 55.6°F13.1°C 73% 2.3 mph W3.7 kmh W 5.7 mph9.2 kmh 29.89 in1012.2 mb 0.00 in0.0 mm 0.00 in0.0 mm 0.09 in2.3 mm
05:00 PM 64.4°F18.0°C 55.6°F13.1°C 73% 1.5 mph NW2.4 kmh NW 3.2 mph5.1 kmh 29.89 in1012.2 mb 0.00 in0.0 mm 0.00 in0.0 mm 0.09 in2.3 mm
05:10 PM 64.6°F18.1°C 55.7°F13.2°C 73% 1.5 mph W2.4 kmh W 6.1 mph9.8 kmh 29.89 in1012.2 mb 0.00 in0.0 mm 0.00 in0.0 mm 0.09 in2.3 mm
05:20 PM 64.2°F17.9°C 55.0°F12.8°C 72% 1.6 mph W2.6 kmh W 5.0 mph8.0 kmh 29.89 in1012.2 mb 0.00 in0.0 mm 0.00 in0.0 mm 0.09 in2.3 mm
05:30 PM 63.9°F17.7°C 54.7°F12.6°C 72% 1.0 mph W1.6 kmh W 1.8 mph2.9 kmh 29.89 in1012.2 mb 0.00 in0.0 mm 0.00 in0.0 mm 0.09 in2.3 mm
05:40 PM 64.0°F17.8°C 55.2°F12.9°C 73% 0.6 mph W1.0 kmh W 5.4 mph8.7 kmh 29.89 in1012.2 mb 0.00 in0.0 mm 0.00 in0.0 mm 0.09 in2.3 mm
05:50 PM 64.0°F17.8°C 55.2°F12.9°C 73% 1.6 mph W2.6 kmh W 3.9 mph6.3 kmh 29.89 in1012.2 mb 0.00 in0.0 mm 0.00 in0.0 mm 0.09 in2.3 mm
06:00 PM 63.9°F17.7°C 55.0°F12.8°C 73% 2.0 mph WSW3.2 kmh WSW 5.4 mph8.7 kmh 29.89 in1012.2 mb 0.00 in0.0 mm 0.00 in0.0 mm 0.09 in2.3 mm
06:10 PM 63.5°F17.5°C 54.7°F12.6°C 73% 1.6 mph S2.6 kmh S 6.1 mph9.8 kmh 29.89 in1012.2 mb 0.00 in0.0 mm 0.00 in0.0 mm 0.09 in2.3 mm
06:20 PM 63.1°F17.3°C 54.3°F12.4°C 73% 0.4 mph SW0.6 kmh SW 2.1 mph3.4 kmh 29.89 in1012.2 mb 0.00 in0.0 mm 0.00 in0.0 mm 0.09 in2.3 mm
06:30 PM 62.8°F17.1°C 54.0°F12.2°C 73% 1.6 mph W2.6 kmh W 2.1 mph3.4 kmh 29.89 in1012.2 mb 0.00 in0.0 mm 0.00 in0.0 mm 0.09 in2.3 mm
06:40 PM 62.6°F17.0°C 54.2°F12.3°C 74% 0.2 mph SW0.3 kmh SW 2.1 mph3.4 kmh 29.89 in1012.2 mb 0.00 in0.0 mm 0.00 in0.0 mm 0.09 in2.3 mm
06:50 PM 62.2°F16.8°C 54.2°F12.3°C 75% 0.9 mph S1.4 kmh S 3.9 mph6.3 kmh 29.89 in1012.2 mb 0.00 in0.0 mm 0.00 in0.0 mm 0.09 in2.3 mm
07:00 PM 62.1°F16.7°C 54.0°F12.2°C 75% Calm Calm -- 29.89 in1012.2 mb 0.00 in0.0 mm 0.00 in0.0 mm 0.09 in2.3 mm
07:10 PM 61.7°F16.5°C 54.1°F12.3°C 76% Calm Calm -- 29.89 in1012.2 mb 0.00 in0.0 mm 0.00 in0.0 mm 0.09 in2.3 mm
07:20 PM 61.3°F16.3°C 53.7°F12.1°C 76% 1.3 mph S2.1 kmh S 4.3 mph6.9 kmh 29.89 in1012.2 mb 0.00 in0.0 mm 0.00 in0.0 mm 0.09 in2.3 mm
07:30 PM 61.0°F16.1°C 53.4°F11.9°C 76% 0.4 mph S0.6 kmh S 3.9 mph6.3 kmh 29.89 in1012.2 mb 0.00 in0.0 mm 0.00 in0.0 mm 0.09 in2.3 mm
07:40 PM 60.8°F16.0°C 53.2°F11.8°C 76% 1.6 mph S2.6 kmh S 4.7 mph7.6 kmh 29.89 in1012.2 mb 0.00 in0.0 mm 0.00 in0.0 mm 0.09 in2.3 mm
07:50 PM 60.4°F15.8°C 53.2°F11.8°C 77% Calm Calm -- 29.89 in1012.2 mb 0.00 in0.0 mm 0.00 in0.0 mm 0.09 in2.3 mm
08:00 PM 60.3°F15.7°C 53.0°F11.7°C 77% 1.4 mph S2.3 kmh S 3.2 mph5.1 kmh 29.89 in1012.2 mb 0.00 in0.0 mm 0.00 in0.0 mm 0.09 in2.3 mm
08:10 PM 60.3°F15.7°C 53.0°F11.7°C 77% 2.6 mph S4.2 kmh S 3.2 mph5.1 kmh 29.89 in1012.2 mb 0.00 in0.0 mm 0.00 in0.0 mm 0.09 in2.3 mm
08:20 PM 60.3°F15.7°C 53.0°F11.7°C 77% 2.6 mph S4.2 kmh S 3.2 mph5.1 kmh 29.89 in1012.2 mb 0.00 in0.0 mm 0.00 in0.0 mm 0.09 in2.3 mm
08:30 PM 60.1°F15.6°C 52.8°F11.6°C 77% Calm Calm -- 29.89 in1012.2 mb 0.00 in0.0 mm 0.00 in0.0 mm 0.09 in2.3 mm
08:40 PM 60.1°F15.6°C 52.8°F11.6°C 77% Calm Calm -- 29.89 in1012.2 mb 0.00 in0.0 mm 0.00 in0.0 mm 0.09 in2.3 mm
08:50 PM 60.1°F15.6°C 53.2°F11.8°C 78% Calm Calm -- 29.89 in1012.2 mb 0.00 in0.0 mm 0.00 in0.0 mm 0.09 in2.3 mm
09:00 PM 60.3°F15.7°C 53.4°F11.9°C 78% 1.7 mph S2.7 kmh S 2.1 mph3.4 kmh 29.89 in1012.2 mb 0.00 in0.0 mm 0.00 in0.0 mm 0.09 in2.3 mm
09:10 PM 59.9°F15.5°C 53.0°F11.7°C 78% 1.7 mph S2.7 kmh S 2.1 mph3.4 kmh 29.89 in1012.2 mb 0.00 in0.0 mm 0.00 in0.0 mm 0.09 in2.3 mm
09:20 PM 59.7°F15.4°C 53.2°F11.8°C 79% 1.7 mph S2.7 kmh S 2.1 mph3.4 kmh 29.89 in1012.2 mb 0.00 in0.0 mm 0.00 in0.0 mm 0.09 in2.3 mm
09:30 PM 59.7°F15.4°C 53.2°F11.8°C 79% 1.7 mph S2.7 kmh S 2.1 mph3.4 kmh 29.89 in1012.2 mb 0.00 in0.0 mm 0.00 in0.0 mm 0.09 in2.3 mm
09:40 PM 59.7°F15.4°C 53.5°F11.9°C 80% 0.6 mph S1.0 kmh S 2.1 mph3.4 kmh 29.89 in1012.2 mb 0.00 in0.0 mm 0.00 in0.0 mm 0.09 in2.3 mm
09:50 PM 59.7°F15.4°C 53.5°F11.9°C 80% 2.1 mph S3.4 kmh S 7.5 mph12.1 kmh 29.89 in1012.2 mb 0.00 in0.0 mm 0.00 in0.0 mm 0.09 in2.3 mm
10:00 PM 59.7°F15.4°C 53.2°F11.8°C 79% 1.9 mph S3.1 kmh S 7.5 mph12.1 kmh 29.86 in1011.2 mb 0.00 in0.0 mm 0.00 in0.0 mm 0.09 in2.3 mm
10:10 PM 59.7°F15.4°C 52.8°F11.6°C 78% 2.3 mph S3.7 kmh S 3.9 mph6.3 kmh 29.86 in1011.2 mb 0.00 in0.0 mm 0.00 in0.0 mm 0.09 in2.3 mm
10:20 PM 59.7°F15.4°C 52.5°F11.4°C 77% 2.0 mph S3.2 kmh S 4.7 mph7.6 kmh 29.86 in1011.2 mb 0.00 in0.0 mm 0.00 in0.0 mm 0.09 in2.3 mm
10:30 PM 59.9°F15.5°C 52.7°F11.5°C 77% 1.5 mph S2.4 kmh S 4.7 mph7.6 kmh 29.86 in1011.2 mb 0.00 in0.0 mm 0.00 in0.0 mm 0.09 in2.3 mm
10:40 PM 59.5°F15.3°C 52.0°F11.1°C 76% 3.2 mph S5.1 kmh S 4.7 mph7.6 kmh 29.86 in1011.2 mb 0.00 in0.0 mm 0.00 in0.0 mm 0.09 in2.3 mm
10:50 PM 59.7°F15.4°C 51.8°F11.0°C 75% 3.4 mph S5.5 kmh S 4.7 mph7.6 kmh 29.89 in1012.2 mb 0.00 in0.0 mm 0.00 in0.0 mm 0.09 in2.3 mm
11:00 PM 59.7°F15.4°C 51.0°F10.6°C 73% 0.4 mph S0.6 kmh S 3.2 mph5.1 kmh 29.89 in1012.2 mb 0.00 in0.0 mm 0.00 in0.0 mm 0.09 in2.3 mm
11:10 PM 59.5°F15.3°C 50.5°F10.3°C 72% 3.1 mph S5.0 kmh S 5.7 mph9.2 kmh 29.89 in1012.2 mb 0.00 in0.0 mm 0.00 in0.0 mm 0.09 in2.3 mm
11:20 PM 59.7°F15.4°C 50.3°F10.2°C 71% 4.7 mph S7.6 kmh S 5.7 mph9.2 kmh 29.92 in1013.2 mb 0.00 in0.0 mm 0.00 in0.0 mm 0.09 in2.3 mm
11:30 PM 59.7°F15.4°C 50.3°F10.2°C 71% 3.7 mph S6.0 kmh S 5.4 mph8.7 kmh 29.89 in1012.2 mb 0.00 in0.0 mm 0.00 in0.0 mm 0.09 in2.3 mm
11:40 PM 59.9°F15.5°C 50.5°F10.3°C 71% 0.2 mph S0.3 kmh S 3.2 mph5.1 kmh 29.89 in1012.2 mb 0.00 in0.0 mm 0.00 in0.0 mm 0.09 in2.3 mm
11:50 PM 59.7°F15.4°C 50.7°F10.4°C 72% 1.9 mph S3.1 kmh S 8.6 mph13.8 kmh 29.89 in1012.2 mb 0.00 in0.0 mm 0.00 in0.0 mm 0.09 in2.3 mm